Allerte
Precipitazioni in corso 

Lampedusa

Allerta Gelo (░C)  

Nessuna

Allerta Vento (km/h)  

Monte Scuro
46.3/NNW

Scarsa VisibilitÓ (m) 

Nessuna

Allerta Caldo (░C)  

Nessuna

Allerta Afa (░C-UR)  

Nessuna

Dati e Grafici Climatici 3-7 gg
L'OMTeA propone un elaborazione dei più importanti parametri meteorologici rilevati dalle stazioni che hanno aderito al progetto di monitoraggio. In questa sezione è possibile consultare i dati provenienti dalle centraline, interpretati attraverso output testuale e grafico.
Se vuoi aderire alla rete OMTeA vai alla pagina Info e leggi requisiti e vantaggi.

Stazione di Cefal¨ - www.meteocefalu.altervista.org

Valori rilevati il 22/03/2019 alle ore 20:59

Temperatura atmosferica: 13.6 °C
Pressione atmosferica: 1017.7 mbar
Umidità relativa: 73 %
Intensità e direzione vento: 2.1 Km/h da S

Altitudine: 20 metri s.l.m.
Latitudine: 38.02° N
Longitudine: 14.01° E



Entra nella rete OMTeA!. Potrai liberamente usare sul tuo sito questi grafici; info alla pagina Istruzioni.

Ultime 50 rilevazioni
Orario Temp
°C
Rugiada
°C
Prec.
mm
Press.
mbar
Umidità
%
Int. vento
km/h
Dir.
vento
20:59 - 22/03 13.6 8.8 0 1017.70 73 2.1 S
20:44 - 22/03 13.5 8.8 0 1017.30 73 2.5 SSO
20:29 - 22/03 13.4 8.7 0 1017.20 73 1.9 SO
20:14 - 22/03 13.4 8.5 0 1017.20 72 2.2 SO
19:59 - 22/03 13.5 8.5 0 1017.10 72 2.5 SO
19:44 - 22/03 13.3 8.6 0 1017.10 73 2.1 S
19:29 - 22/03 13.1 8.4 0 1017.00 73 1.4 SSE
19:14 - 22/03 13.7 9.1 0 1016.90 74 0 --
18:59 - 22/03 13.6 9.3 0 1016.80 75 2.7 SSO
18:44 - 22/03 13.2 9.1 0 1016.90 76 1.9 S
18:29 - 22/03 13.6 9.6 0 1017.00 77 1.2 S
18:14 - 22/03 14.1 10.1 0 1017.00 77 1.7 S
17:59 - 22/03 14.5 10.5 0 1017.00 77 0 --
17:44 - 22/03 14.7 10.7 0 1017.00 77 0 --
17:29 - 22/03 14.5 10.7 0 1017.10 78 0.8 OSO
17:14 - 22/03 14.6 11.0 0 1017.30 79 1.9 O
16:59 - 22/03 14.5 10.9 0 1017.40 79 2.1 O
16:44 - 22/03 14.5 10.9 0 1017.30 79 1.7 OSO
16:29 - 22/03 14.4 10.8 0 1017.30 79 6.6 SSO
16:14 - 22/03 14.6 10.8 0 1017.60 78 3.3 ONO
15:59 - 22/03 14.5 10.7 0 1017.60 78 2.7 SSO
15:44 - 22/03 14.6 10.8 0 1017.80 78 1.7 O
15:29 - 22/03 14.9 10.9 0 1017.50 77 0.6 O
15:14 - 22/03 14.9 10.9 0 1017.60 77 2.7 SO
14:59 - 22/03 15.1 10.9 0 1017.70 76 2.7 O
14:44 - 22/03 15.1 10.9 0 1017.80 76 1.7 OSO
14:29 - 22/03 15.2 11.0 0 1017.70 76 3.3 ONO
14:14 - 22/03 15.3 10.9 0 1017.80 75 1.2 OSO
13:59 - 22/03 14.9 10.5 0 1018.10 75 1.2 SSO
13:44 - 22/03 14.9 10.7 0 1018.00 76 2.1 ONO
13:29 - 22/03 15.2 11.2 0 1018.10 77 2.1 O
13:14 - 22/03 15.0 11.0 0 1018.20 77 3.1 SSO
12:59 - 22/03 14.9 10.9 0 1018.20 77 1.0 O
12:44 - 22/03 14.5 10.7 0 1018.20 78 3.1 ONO
12:29 - 22/03 14.4 10.6 0 1018.30 78 2.9 O
12:14 - 22/03 14.8 11.0 0 1018.50 78 3.1 SO
11:59 - 22/03 14.9 10.7 0 1018.60 76 5.8 SO
11:44 - 22/03 15.1 10.3 0 1018.70 73 2.5 ONO
11:29 - 22/03 15.3 10.3 0 1018.70 72 2.1 SO
11:14 - 22/03 15.3 10.1 0 1018.50 71 2.5 ONO
10:59 - 22/03 15.5 10.3 0 1018.50 71 0.8 N
10:44 - 22/03 15.2 10.0 0 1018.40 71 2.9 NNO
10:29 - 22/03 15.1 9.7 0 1018.50 70 1.9 O
10:14 - 22/03 15.1 9.5 0 1018.60 69 3.3 OSO
09:59 - 22/03 14.9 9.3 0 1018.50 69 2.9 SO
09:44 - 22/03 14.8 8.9 0 1018.50 68 1.9 O
09:29 - 22/03 15.2 9.3 0 1018.50 68 0 --
09:14 - 22/03 14.9 9.3 0 1018.60 69 1.2 S
08:59 - 22/03 15.1 9.5 0 1018.60 69 1.7 O
08:44 - 22/03 14.8 8.9 0 1018.40 68 0 --


   In caso di mancato funzionamento di qualche risorsa, vi preghiamo di segnalarcelo alla pagina Contatti.
© 2019 Osservatorio Meteo OMTeA
Sito di informazione su Meteo, Tempo in atto e Clima in Italia